Aérodrome :
LOGIN :

S'inscrire | Disclaimer

   EN    FR    IT 

 










Légende :    VFR   VFR Marginal   IFR   IFR Intensif   IFR Très Intensif
Visi : 
Plafond : 
>= 8 km
>= 3000ft
5 à 8 km
1000 à 3000 ft
1500m à 5 km
500 à 1000 ft
800 à 1500m
200 à 500 ft
< 800m
< 200 ft
Symboles :   Orages  Brouillard  Fortes neiges  Fortes précipitations  Vent > 20 kt
SIGMETs :   Divers  Orages  Givrage  Turbulence  Onde Orograph.  Cendres Volcan.







- Altitude de l'aérodrome : 586 ft


LIMN - Cameri Air Force Base

DERNIER METAR :
  • 011655Z 08006KT CAVOK 14/M05 Q1010 RMK SCT SCT100 VIS MIN 9999 BLU

METARs EXPIRÉS :
  • 011555Z 10007KT CAVOK 15/M05 Q1010 RMK SKC VIS MIN 9999 BLU
  • 011455Z 15006KT 110V180 CAVOK 15/M05 Q1010 RMK SKC VIS MIN 9999 BLU

TAF TAF LIMN
Valide du 01 à 18h jusqu'au 02 à 03h UTC


011700Z 0118/0203 10007KT CAVOK
Pas de NOTAMs connus pour ce terrain.
1 SIGMET publié pour la FIR Milano (LIMM) :
 
LIMM SIGMET 14 VALID 011610/012010 LIMM- LIMM MILANO FIR SEV TURB FCST N OF LINE N4444 E00651 - N4556 E01344 FL100/240 MOV E WKN=



MET'MAP, la Météo Aéronautique d'un coup d'oeil ! - Copyright ORBIFLY Décembre 2007 - Disclaimer

ORBIFLY MET'MAP TEAM :

Programmation & Développement : Alexandra Zaïnal
Conception & Développement : Baudouin d'Aumeries
Co-Programmation & Développement : Marc-Olivier Méhu
Soutien technique & logistique : Manuel Goepfert

Contact : metmap@orbifly.com




SOURCES & CREDITS :

   NOAA